createdAt,value
2022-07-28T00:00:11.542Z,20.34
2022-07-28T00:02:38.667Z,20.33
2022-07-28T00:05:06.644Z,20.31
2022-07-28T00:07:34.561Z,20.32
2022-07-28T00:10:01.582Z,20.31
2022-07-28T00:12:30.639Z,20.30
2022-07-28T00:14:57.704Z,20.29
2022-07-28T00:17:25.317Z,20.26
2022-07-28T00:19:53.008Z,20.24
2022-07-28T00:22:20.264Z,20.21
2022-07-28T00:24:47.240Z,20.21
2022-07-28T00:27:19.142Z,20.19
2022-07-28T00:29:50.300Z,20.20
2022-07-28T00:32:19.350Z,20.17
2022-07-28T00:34:47.082Z,20.18
2022-07-28T00:37:14.822Z,20.14
2022-07-28T00:39:43.095Z,20.11
2022-07-28T00:42:10.607Z,20.12
2022-07-28T00:44:41.892Z,20.07
2022-07-28T00:47:09.490Z,20.06
2022-07-28T00:49:36.563Z,20.07
2022-07-28T00:52:04.762Z,20.06
2022-07-28T00:54:33.510Z,20.00
2022-07-28T00:57:00.494Z,19.97
2022-07-28T00:59:27.446Z,19.97
2022-07-28T01:01:56.007Z,19.91
2022-07-28T01:04:24.686Z,19.89
2022-07-28T01:07:01.664Z,19.83
2022-07-28T01:09:50.258Z,19.70
2022-07-28T01:12:32.944Z,19.71
2022-07-28T01:15:18.588Z,19.76
2022-07-28T01:17:54.340Z,19.80
2022-07-28T01:20:34.233Z,19.82
2022-07-28T01:23:13.088Z,19.80
2022-07-28T01:26:35.634Z,19.65
2022-07-28T01:29:40.638Z,19.70
2022-07-28T01:32:20.176Z,19.58
2022-07-28T01:34:57.284Z,19.58
2022-07-28T01:37:28.768Z,19.58
2022-07-28T01:40:03.302Z,19.60
2022-07-28T01:42:37.257Z,19.57
2022-07-28T01:45:07.352Z,19.57
2022-07-28T01:47:35.396Z,19.58
2022-07-28T01:50:06.641Z,19.54
2022-07-28T01:52:36.890Z,19.54
2022-07-28T01:55:04.501Z,19.52
2022-07-28T01:57:33.179Z,19.52
2022-07-28T02:00:01.610Z,19.50
2022-07-28T02:02:32.981Z,19.47
2022-07-28T02:05:01.111Z,19.48
2022-07-28T02:07:31.957Z,19.48
2022-07-28T02:10:01.360Z,19.46
2022-07-28T02:12:29.779Z,19.43
2022-07-28T02:15:17.872Z,19.46
2022-07-28T02:17:47.403Z,19.44
2022-07-28T02:20:16.363Z,19.44
2022-07-28T02:22:44.557Z,19.48
2022-07-28T02:25:19.620Z,19.50
2022-07-28T02:27:58.939Z,19.45
2022-07-28T02:30:32.699Z,19.43
2022-07-28T02:33:58.388Z,19.40
2022-07-28T02:36:26.401Z,19.38
2022-07-28T02:38:55.334Z,19.42
2022-07-28T02:41:28.359Z,19.41
2022-07-28T02:44:12.035Z,19.39
2022-07-28T02:46:44.272Z,19.42
2022-07-28T02:49:23.981Z,19.41
2022-07-28T02:51:53.538Z,19.46
2022-07-28T02:54:21.611Z,19.45
2022-07-28T02:56:53.325Z,19.44
2022-07-28T02:59:23.470Z,19.42
2022-07-28T03:01:51.769Z,19.40
2022-07-28T03:04:42.399Z,19.39
2022-07-28T03:07:11.090Z,19.40
2022-07-28T03:09:40.900Z,19.39
2022-07-28T03:12:09.105Z,19.40
2022-07-28T03:14:36.551Z,19.39
2022-07-28T03:17:04.048Z,19.41
2022-07-28T03:19:31.292Z,19.43
2022-07-28T03:21:58.739Z,19.45
2022-07-28T03:24:32.589Z,19.46
2022-07-28T03:27:27.676Z,19.37
2022-07-28T03:30:04.024Z,19.42
2022-07-28T03:32:35.053Z,19.44
2022-07-28T03:35:02.358Z,19.48
2022-07-28T03:37:42.317Z,19.48
2022-07-28T03:40:12.300Z,19.53
2022-07-28T03:42:41.085Z,19.59
2022-07-28T03:45:08.832Z,19.62
2022-07-28T03:47:36.067Z,19.63
2022-07-28T03:50:03.080Z,19.61
2022-07-28T03:52:30.895Z,19.69
2022-07-28T03:54:58.254Z,19.70
2022-07-28T03:57:26.031Z,19.70
2022-07-28T03:59:53.078Z,19.72
2022-07-28T04:02:20.356Z,19.75
2022-07-28T04:04:47.510Z,19.81
2022-07-28T04:07:19.818Z,19.89
2022-07-28T04:09:47.511Z,19.96
2022-07-28T04:12:14.440Z,19.99
2022-07-28T04:14:42.438Z,20.04
2022-07-28T04:17:09.959Z,20.10
2022-07-28T04:19:37.018Z,20.17
2022-07-28T04:22:03.964Z,20.17
2022-07-28T04:24:31.241Z,20.19
2022-07-28T04:26:58.628Z,20.21
2022-07-28T04:29:27.270Z,20.23
2022-07-28T04:31:54.746Z,20.24
2022-07-28T04:34:21.839Z,20.32
2022-07-28T04:36:49.070Z,20.44
2022-07-28T04:39:16.354Z,20.56
2022-07-28T04:41:47.228Z,20.69
2022-07-28T04:44:18.671Z,20.79
2022-07-28T04:46:47.037Z,20.88
2022-07-28T04:49:14.133Z,20.93
2022-07-28T04:51:42.147Z,20.98
2022-07-28T04:54:11.801Z,21.02
2022-07-28T04:56:38.880Z,21.06
2022-07-28T04:59:06.247Z,21.11
2022-07-28T05:01:33.223Z,21.13
2022-07-28T05:04:00.339Z,21.21
2022-07-28T05:06:27.633Z,21.26
2022-07-28T05:08:54.602Z,21.32
2022-07-28T05:11:21.780Z,21.40
2022-07-28T05:13:51.171Z,21.47
2022-07-28T05:16:19.071Z,21.55
2022-07-28T05:18:46.155Z,21.55
2022-07-28T05:21:13.367Z,21.52
2022-07-28T05:23:47.743Z,21.57
2022-07-28T05:26:15.119Z,21.63
2022-07-28T05:28:42.185Z,21.68
2022-07-28T05:31:10.517Z,21.60
2022-07-28T05:33:38.405Z,21.57
2022-07-28T05:36:05.888Z,22.70
2022-07-28T05:38:34.015Z,24.08
2022-07-28T05:41:01.350Z,25.62
2022-07-28T05:43:28.423Z,26.89
2022-07-28T05:45:55.480Z,27.61
2022-07-28T05:48:23.007Z,28.17
2022-07-28T05:50:51.332Z,28.26
2022-07-28T05:53:19.555Z,28.34
2022-07-28T05:56:00.071Z,28.62
2022-07-28T05:58:29.940Z,29.85
2022-07-28T06:01:01.930Z,30.49
2022-07-28T06:03:32.228Z,29.68
2022-07-28T06:06:14.914Z,28.74
2022-07-28T06:08:44.252Z,27.76
2022-07-28T06:11:22.087Z,27.06
2022-07-28T06:13:51.472Z,26.42
2022-07-28T06:16:20.888Z,25.89
2022-07-28T06:18:48.262Z,25.34
2022-07-28T06:21:15.289Z,24.90
2022-07-28T06:23:42.759Z,24.63
2022-07-28T06:26:09.739Z,24.39
2022-07-28T06:28:37.125Z,24.29
2022-07-28T06:31:04.560Z,24.28
2022-07-28T06:33:31.520Z,24.72
2022-07-28T06:35:58.544Z,25.23
2022-07-28T06:38:25.910Z,25.50
2022-07-28T06:40:52.951Z,25.64
2022-07-28T06:43:20.059Z,25.77
2022-07-28T06:45:47.680Z,25.97
2022-07-28T06:48:15.138Z,26.37
2022-07-28T06:50:43.175Z,27.63
2022-07-28T06:53:11.032Z,27.84
2022-07-28T06:55:38.328Z,28.19
2022-07-28T06:58:08.333Z,29.22
2022-07-28T07:00:37.866Z,30.26
2022-07-28T07:03:09.583Z,31.53
2022-07-28T07:05:38.863Z,32.49
2022-07-28T07:08:06.751Z,33.30
2022-07-28T07:10:35.685Z,34.07
2022-07-28T07:13:03.463Z,34.51
2022-07-28T07:15:30.696Z,34.97
2022-07-28T07:18:00.124Z,35.45
2022-07-28T07:20:28.339Z,34.97
2022-07-28T07:22:58.002Z,34.44
2022-07-28T07:25:24.958Z,34.18
2022-07-28T07:27:52.604Z,34.42
2022-07-28T07:30:20.439Z,34.40
2022-07-28T07:32:47.566Z,34.08
2022-07-28T07:35:16.219Z,33.88
2022-07-28T07:37:43.357Z,32.80
2022-07-28T07:40:10.891Z,31.87
2022-07-28T07:42:41.388Z,31.13
2022-07-28T07:45:09.036Z,30.83
2022-07-28T07:47:36.459Z,31.11
2022-07-28T07:50:07.051Z,30.90
2022-07-28T07:52:35.525Z,30.65
2022-07-28T07:55:05.760Z,30.57
2022-07-28T07:57:33.095Z,30.52
2022-07-28T08:00:00.268Z,30.48
2022-07-28T08:02:29.880Z,30.71
2022-07-28T08:05:00.665Z,31.54
2022-07-28T08:07:28.786Z,32.08
2022-07-28T08:09:59.233Z,32.49
2022-07-28T08:12:26.458Z,32.45
2022-07-28T08:14:55.083Z,32.46
2022-07-28T08:17:25.943Z,32.24
2022-07-28T08:19:53.818Z,31.88
2022-07-28T08:22:20.804Z,31.36
2022-07-28T08:24:48.207Z,30.83
2022-07-28T08:27:15.199Z,30.95
2022-07-28T08:32:33.544Z,31.35
2022-07-28T08:35:30.449Z,31.64
2022-07-28T08:37:48.718Z,31.74
2022-07-28T08:40:18.631Z,31.74
2022-07-28T08:43:28.705Z,31.33
2022-07-28T08:46:06.626Z,31.65
2022-07-28T08:48:35.990Z,31.83
2022-07-28T08:51:09.753Z,31.70
2022-07-28T08:53:39.492Z,31.85
2022-07-28T08:56:08.476Z,31.99
2022-07-28T08:58:37.900Z,32.07
2022-07-28T09:01:18.657Z,32.12
2022-07-28T09:03:46.937Z,32.07
2022-07-28T09:06:14.463Z,32.00
2022-07-28T09:08:43.794Z,31.86
2022-07-28T09:11:10.834Z,32.02
2022-07-28T09:13:39.719Z,31.98
2022-07-28T09:16:07.482Z,31.87
2022-07-28T09:18:34.859Z,32.03
2022-07-28T09:21:01.796Z,32.13
2022-07-28T09:23:46.903Z,31.87
2022-07-28T09:26:14.848Z,32.01
2022-07-28T09:29:08.725Z,31.75
2022-07-28T09:31:55.586Z,32.09
2022-07-28T09:34:26.165Z,32.10
2022-07-28T09:36:53.450Z,31.99
2022-07-28T09:39:35.042Z,31.62
2022-07-28T09:42:02.907Z,31.60
2022-07-28T09:44:30.008Z,31.66
2022-07-28T09:46:57.652Z,31.66
2022-07-28T09:49:45.097Z,31.07
2022-07-28T09:52:12.152Z,31.18
2022-07-28T09:54:41.195Z,31.29
2022-07-28T09:57:11.981Z,31.30
2022-07-28T09:59:43.018Z,31.17
2022-07-28T10:02:13.824Z,31.02
2022-07-28T10:04:44.561Z,31.10
2022-07-28T10:07:17.282Z,31.21
2022-07-28T10:10:02.283Z,31.31
2022-07-28T10:12:32.540Z,31.24
2022-07-28T10:15:39.025Z,30.89
2022-07-28T10:18:13.770Z,30.78
2022-07-28T10:20:41.504Z,30.31
2022-07-28T10:23:13.678Z,30.11
2022-07-28T10:25:44.383Z,30.08
2022-07-28T10:28:16.487Z,30.09
2022-07-28T10:30:44.176Z,29.65
2022-07-28T10:33:47.131Z,29.83
2022-07-28T10:36:17.786Z,29.97
2022-07-28T10:38:44.958Z,29.86
2022-07-28T10:41:17.706Z,29.68
2022-07-28T10:43:46.541Z,29.64
2022-07-28T10:46:17.128Z,29.67
2022-07-28T10:48:44.579Z,29.70
2022-07-28T10:51:13.917Z,29.63
2022-07-28T10:53:47.528Z,29.70
2022-07-28T10:56:24.500Z,29.80
2022-07-28T10:59:10.111Z,29.84
2022-07-28T11:01:50.154Z,29.91
2022-07-28T11:04:55.867Z,29.80
2022-07-28T11:07:22.836Z,29.95
2022-07-28T11:09:52.509Z,29.93
2022-07-28T11:12:46.527Z,29.81
2022-07-28T11:15:34.949Z,29.99
2022-07-28T11:18:20.138Z,30.05
2022-07-28T11:20:55.416Z,30.19
2022-07-28T11:23:37.682Z,30.21
2022-07-28T11:26:23.465Z,30.21
2022-07-28T11:29:11.025Z,30.33
2022-07-28T11:31:47.260Z,30.56
2022-07-28T11:34:19.549Z,30.85
2022-07-28T11:37:02.562Z,30.85
2022-07-28T11:39:41.253Z,31.12
2022-07-28T11:42:31.295Z,31.03
2022-07-28T11:45:18.464Z,31.43
2022-07-28T11:47:46.227Z,31.53
2022-07-28T11:50:14.683Z,31.50
2022-07-28T11:52:53.992Z,31.19
2022-07-28T11:55:21.661Z,31.12
2022-07-28T11:58:27.713Z,30.74
2022-07-28T12:01:21.006Z,30.60
2022-07-28T12:03:55.332Z,30.79
2022-07-28T12:06:36.709Z,30.92
2022-07-28T12:09:06.244Z,31.05
2022-07-28T12:11:35.846Z,31.08
2022-07-28T12:14:08.237Z,31.01
2022-07-28T12:16:38.385Z,30.91
2022-07-28T12:19:10.602Z,30.78
2022-07-28T12:21:47.511Z,30.36
2022-07-28T12:24:31.808Z,30.15
2022-07-28T12:27:00.754Z,29.99
2022-07-28T12:29:32.213Z,29.90
2022-07-28T12:32:10.146Z,29.75
2022-07-28T12:34:40.946Z,29.71
2022-07-28T12:37:10.233Z,29.66
2022-07-28T12:39:42.096Z,29.59
2022-07-28T12:42:12.015Z,29.42
2022-07-28T12:45:06.390Z,29.30
2022-07-28T12:47:34.705Z,29.35
2022-07-28T12:50:14.366Z,29.23
2022-07-28T12:52:51.277Z,29.24
2022-07-28T12:55:23.992Z,29.25
2022-07-28T12:57:53.043Z,29.35
2022-07-28T13:00:25.660Z,29.37
2022-07-28T13:02:56.508Z,29.42
2022-07-28T13:06:02.282Z,29.41
2022-07-28T13:08:46.643Z,29.28
2022-07-28T13:11:42.891Z,29.36
2022-07-28T13:14:04.605Z,29.36
2022-07-28T13:16:32.581Z,29.40
2022-07-28T13:19:04.616Z,29.43
2022-07-28T13:21:57.356Z,29.42
2022-07-28T13:24:26.288Z,29.46
2022-07-28T13:26:53.617Z,29.39
2022-07-28T13:29:45.310Z,29.22
2022-07-28T13:32:14.348Z,29.39
2022-07-28T13:34:42.510Z,29.45
2022-07-28T13:37:09.873Z,29.40
2022-07-28T13:39:37.764Z,29.37
2022-07-28T13:42:06.801Z,29.34
2022-07-28T13:44:39.243Z,29.36
2022-07-28T13:47:07.878Z,29.39
2022-07-28T13:49:37.896Z,29.40
2022-07-28T13:52:13.237Z,29.29
2022-07-28T13:54:40.648Z,29.28
2022-07-28T13:57:08.231Z,29.27
2022-07-28T13:59:37.767Z,29.24
2022-07-28T14:02:15.625Z,29.22
2022-07-28T14:04:46.037Z,29.23
2022-07-28T14:07:21.055Z,29.24
2022-07-28T14:09:50.504Z,29.25
2022-07-28T14:12:18.194Z,29.25
2022-07-28T14:14:48.207Z,29.26
2022-07-28T14:20:12.622Z,29.25
2022-07-28T14:22:40.261Z,29.27
2022-07-28T14:25:07.725Z,29.31
2022-07-28T14:27:35.177Z,29.34
2022-07-28T14:30:04.101Z,29.35
2022-07-28T14:32:36.019Z,29.33
2022-07-28T14:35:03.883Z,29.33
2022-07-28T14:37:55.095Z,29.31
2022-07-28T14:40:21.685Z,29.26
2022-07-28T14:42:48.764Z,29.27
2022-07-28T14:45:15.870Z,29.30
2022-07-28T14:47:44.877Z,29.33
2022-07-28T14:50:12.927Z,29.36
2022-07-28T14:52:39.918Z,29.41
2022-07-28T14:55:07.837Z,29.45
2022-07-28T14:57:50.246Z,29.48
2022-07-28T15:00:30.697Z,29.47
2022-07-28T15:02:58.331Z,29.49
2022-07-28T15:05:25.914Z,29.49
2022-07-28T15:07:54.339Z,29.47
2022-07-28T15:10:23.932Z,29.47
2022-07-28T15:12:52.047Z,29.49
2022-07-28T15:15:21.249Z,29.52
2022-07-28T15:17:49.069Z,29.54
2022-07-28T15:20:16.583Z,29.55
2022-07-28T15:22:44.132Z,29.59
2022-07-28T15:25:11.115Z,29.59
2022-07-28T15:27:42.916Z,29.59
2022-07-28T15:30:13.285Z,29.61
2022-07-28T15:32:56.013Z,29.54
2022-07-28T15:35:59.363Z,29.47
2022-07-28T15:38:18.050Z,29.48
2022-07-28T15:40:49.920Z,29.50
2022-07-28T15:43:19.491Z,29.48
2022-07-28T15:45:51.264Z,29.41
2022-07-28T15:48:18.250Z,29.40
2022-07-28T15:50:48.546Z,29.38
2022-07-28T15:53:16.828Z,29.36
2022-07-28T15:55:48.969Z,29.32
2022-07-28T15:58:18.066Z,29.30
2022-07-28T16:00:46.037Z,29.31
2022-07-28T16:03:13.319Z,29.33
2022-07-28T16:05:41.248Z,29.32
2022-07-28T16:08:08.202Z,29.33
2022-07-28T16:10:35.505Z,29.34
2022-07-28T16:13:02.766Z,29.33
2022-07-28T16:15:29.744Z,29.32
2022-07-28T16:17:58.003Z,29.29
2022-07-28T16:20:25.379Z,29.28
2022-07-28T16:22:52.582Z,29.24
2022-07-28T16:25:20.761Z,29.24
2022-07-28T16:27:48.508Z,29.21
2022-07-28T16:30:17.518Z,29.21
2022-07-28T16:32:45.500Z,29.18
2022-07-28T16:35:15.623Z,29.17
2022-07-28T16:37:43.099Z,29.20
2022-07-28T16:40:11.673Z,29.17
2022-07-28T16:42:39.104Z,29.15
2022-07-28T16:45:06.795Z,29.11
2022-07-28T16:47:33.859Z,29.11
2022-07-28T16:50:01.119Z,29.11
2022-07-28T16:52:30.227Z,29.10
2022-07-28T16:54:57.290Z,29.07
2022-07-28T16:57:24.697Z,29.05
2022-07-28T16:59:51.890Z,29.02
2022-07-28T17:02:19.654Z,28.97
2022-07-28T17:04:47.809Z,28.96
2022-07-28T17:07:15.224Z,28.98
2022-07-28T17:09:42.367Z,28.95
2022-07-28T17:12:12.095Z,28.92
2022-07-28T17:14:39.408Z,28.90
2022-07-28T17:17:06.531Z,28.87
2022-07-28T17:19:34.757Z,28.86
2022-07-28T17:22:05.304Z,28.82
2022-07-28T17:24:32.472Z,28.82
2022-07-28T17:29:46.988Z,28.74
2022-07-28T17:32:14.389Z,28.72
2022-07-28T17:34:41.634Z,28.70
2022-07-28T17:37:08.703Z,28.67
2022-07-28T17:39:36.672Z,28.65
2022-07-28T17:42:04.107Z,28.59
2022-07-28T17:44:31.499Z,28.54
2022-07-28T17:47:01.554Z,28.50
2022-07-28T17:49:30.506Z,28.45
2022-07-28T17:51:58.191Z,28.42
2022-07-28T17:54:27.660Z,28.38
2022-07-28T17:56:57.448Z,28.36
2022-07-28T17:59:24.648Z,28.32
2022-07-28T18:02:01.618Z,28.29
2022-07-28T18:04:28.833Z,28.26
2022-07-28T18:06:56.103Z,28.21
2022-07-28T18:09:23.934Z,28.16
2022-07-28T18:11:56.005Z,28.11
2022-07-28T18:14:27.855Z,28.00
2022-07-28T18:16:55.480Z,27.95
2022-07-28T18:19:22.725Z,27.89
2022-07-28T18:21:52.007Z,27.84
2022-07-28T18:24:22.099Z,27.76
2022-07-28T18:26:50.801Z,27.67
2022-07-28T18:29:19.312Z,27.61
2022-07-28T18:31:47.170Z,27.55
2022-07-28T18:34:15.874Z,27.49
2022-07-28T18:36:44.486Z,27.45
2022-07-28T18:39:14.870Z,27.39
2022-07-28T18:41:47.334Z,27.33
2022-07-28T18:44:18.574Z,27.29
2022-07-28T18:46:46.775Z,27.21
2022-07-28T18:49:14.121Z,27.14
2022-07-28T18:51:44.023Z,27.07
2022-07-28T18:54:21.487Z,27.03
2022-07-28T18:56:53.954Z,26.97
2022-07-28T18:59:21.763Z,26.91
2022-07-28T19:01:49.849Z,26.87
2022-07-28T19:04:17.434Z,26.81
2022-07-28T19:06:44.994Z,26.73
2022-07-28T19:09:12.045Z,26.67
2022-07-28T19:11:45.329Z,26.63
2022-07-28T19:14:14.958Z,26.61
2022-07-28T19:16:42.462Z,26.57
2022-07-28T19:19:09.728Z,26.56
2022-07-28T19:21:36.911Z,26.54
2022-07-28T19:24:04.287Z,26.50
2022-07-28T19:26:31.356Z,26.49
2022-07-28T19:29:08.596Z,26.46
2022-07-28T19:31:35.763Z,26.47
2022-07-28T19:34:04.700Z,26.42
2022-07-28T19:36:32.126Z,26.40
2022-07-28T19:38:59.109Z,26.36
2022-07-28T19:41:26.434Z,26.33
2022-07-28T19:43:56.227Z,26.25
2022-07-28T19:46:24.947Z,26.16
2022-07-28T19:49:01.361Z,26.12
2022-07-28T19:51:28.573Z,26.03
2022-07-28T19:53:59.609Z,25.96
2022-07-28T19:56:31.397Z,25.89
2022-07-28T19:58:59.208Z,25.83
2022-07-28T20:01:27.604Z,25.81
2022-07-28T20:04:03.629Z,25.81
2022-07-28T20:06:32.856Z,25.80
2022-07-28T20:09:07.032Z,25.79
2022-07-28T20:11:37.059Z,25.74
2022-07-28T20:14:05.782Z,25.72
2022-07-28T20:16:34.034Z,25.66
2022-07-28T20:19:04.132Z,25.60
2022-07-28T20:21:51.319Z,25.37
2022-07-28T20:24:21.754Z,25.42
2022-07-28T20:26:48.658Z,25.37
2022-07-28T20:29:22.592Z,25.32
2022-07-28T20:31:49.768Z,25.26
2022-07-28T20:34:21.721Z,25.23
2022-07-28T20:36:50.888Z,25.20
2022-07-28T20:39:43.363Z,25.17
2022-07-28T20:42:07.928Z,25.11
2022-07-28T20:44:35.287Z,25.03
2022-07-28T20:47:04.507Z,24.99
2022-07-28T20:49:31.966Z,24.95
2022-07-28T20:51:59.124Z,24.94
2022-07-28T20:54:27.743Z,24.90
2022-07-28T20:56:55.155Z,24.90
2022-07-28T20:59:27.473Z,24.89
2022-07-28T21:01:55.631Z,24.87
2022-07-28T21:04:24.473Z,24.82
2022-07-28T21:06:54.313Z,24.76
2022-07-28T21:09:23.905Z,24.67
2022-07-28T21:11:50.893Z,24.68
2022-07-28T21:14:26.970Z,24.60
2022-07-28T21:16:54.964Z,24.59
2022-07-28T21:19:22.079Z,24.53
2022-07-28T21:21:49.004Z,24.49
2022-07-28T21:24:16.634Z,24.47
2022-07-28T21:26:43.966Z,24.47
2022-07-28T21:29:12.513Z,24.48
2022-07-28T21:32:03.732Z,24.48
2022-07-28T21:34:28.708Z,24.45
2022-07-28T21:36:56.255Z,24.43
2022-07-28T21:39:23.308Z,24.38
2022-07-28T21:41:50.266Z,24.34
2022-07-28T21:44:18.040Z,24.29
2022-07-28T21:46:45.838Z,24.23
2022-07-28T21:49:13.215Z,24.14
2022-07-28T21:51:49.629Z,23.97
2022-07-28T21:54:16.997Z,23.98
2022-07-28T21:56:44.416Z,23.91
2022-07-28T21:59:11.418Z,23.86
2022-07-28T22:01:39.639Z,23.78
2022-07-28T22:04:06.998Z,23.74
2022-07-28T22:06:33.900Z,23.70
2022-07-28T22:09:00.857Z,23.65
2022-07-28T22:11:28.070Z,23.65
2022-07-28T22:13:55.394Z,23.68
2022-07-28T22:16:22.940Z,23.69
2022-07-28T22:18:50.322Z,23.68
2022-07-28T22:21:17.372Z,23.63
2022-07-28T22:23:45.473Z,23.58
2022-07-28T22:26:12.861Z,23.52
2022-07-28T22:28:41.322Z,23.48
2022-07-28T22:31:10.104Z,23.45
2022-07-28T22:33:38.871Z,23.42
2022-07-28T22:36:07.189Z,23.40
2022-07-28T22:38:34.148Z,23.37
2022-07-28T22:41:01.431Z,23.38
2022-07-28T22:43:28.437Z,23.37
2022-07-28T22:45:55.552Z,23.39
2022-07-28T22:48:22.940Z,23.41
2022-07-28T22:50:49.975Z,23.39
2022-07-28T22:53:16.871Z,23.38
2022-07-28T22:58:28.633Z,23.29
2022-07-28T23:00:58.336Z,23.27
2022-07-28T23:03:26.144Z,23.26
2022-07-28T23:06:00.721Z,23.21
2022-07-28T23:08:28.211Z,23.25
2022-07-28T23:10:55.719Z,23.23
2022-07-28T23:13:24.415Z,23.25
2022-07-28T23:15:51.829Z,23.23
2022-07-28T23:18:18.826Z,23.25
2022-07-28T23:20:46.005Z,23.25
2022-07-28T23:23:14.960Z,23.22
2022-07-28T23:25:50.327Z,23.25
2022-07-28T23:28:24.146Z,23.27
2022-07-28T23:30:52.032Z,23.30
2022-07-28T23:33:54.473Z,23.34
2022-07-28T23:36:16.868Z,23.31
2022-07-28T23:38:53.479Z,23.34
2022-07-28T23:41:20.803Z,23.35
2022-07-28T23:43:47.878Z,23.37
2022-07-28T23:46:14.948Z,23.35
2022-07-28T23:48:43.533Z,23.38
2022-07-28T23:51:10.586Z,23.35
2022-07-28T23:53:39.151Z,23.33
2022-07-28T23:56:07.138Z,23.36
2022-07-28T23:58:35.013Z,23.36
